createdAt,value
2023-01-08T00:04:23.538Z,6.50
2023-01-08T00:09:37.249Z,4.93
2023-01-08T00:12:04.237Z,5.75
2023-01-08T00:14:31.213Z,5.65
2023-01-08T00:17:01.571Z,6.07
2023-01-08T00:19:28.564Z,6.20
2023-01-08T00:21:55.639Z,7.30
2023-01-08T00:24:22.507Z,6.20
2023-01-08T00:26:49.270Z,5.40
2023-01-08T00:29:16.038Z,7.00
2023-01-08T00:31:42.834Z,6.70
2023-01-08T00:34:09.923Z,5.85
2023-01-08T00:36:36.707Z,5.80
2023-01-08T00:39:03.753Z,5.65
2023-01-08T00:41:30.539Z,6.43
2023-01-08T00:42:00.513Z,0
2023-01-08T00:43:05.060Z,0
2023-01-08T00:43:57.635Z,5.70
2023-01-08T00:46:24.833Z,5.60
2023-01-08T00:48:51.695Z,6.70
2023-01-08T00:51:18.479Z,5.55
2023-01-08T00:56:31.955Z,6.15
2023-01-08T01:01:45.517Z,6.90
2023-01-08T01:06:59.055Z,5.80
2023-01-08T01:09:25.878Z,6.30
2023-01-08T01:11:52.684Z,7.00
2023-01-08T01:14:19.458Z,6.30
2023-01-08T01:16:46.359Z,6.97
2023-01-08T01:19:13.487Z,6.32
2023-01-08T01:21:40.326Z,6.10
2023-01-08T01:24:07.475Z,6.40
2023-01-08T01:26:34.765Z,5.90
2023-01-08T01:29:02.060Z,5.97
2023-01-08T01:31:31.255Z,6.68
2023-01-08T01:33:58.513Z,5.65
2023-01-08T01:36:26.721Z,5.80
2023-01-08T01:41:46.766Z,5.93
2023-01-08T01:44:37.723Z,6.75
2023-01-08T01:47:16.311Z,6.78
2023-01-08T01:49:48.362Z,6.00
2023-01-08T01:52:15.355Z,6.80
2023-01-08T01:54:42.165Z,6.28
2023-01-08T01:57:09.379Z,6.70
2023-01-08T01:59:36.160Z,7.30
2023-01-08T02:02:03.126Z,6.57
2023-01-08T02:04:29.951Z,5.70
2023-01-08T02:07:23.720Z,6.70
2023-01-08T02:09:58.652Z,5.57
2023-01-08T02:12:39.289Z,5.93
2023-01-08T02:15:42.736Z,5.27
2023-01-08T02:18:12.541Z,5.43
2023-01-08T02:21:05.194Z,5.00
2023-01-08T02:23:52.837Z,5.20
2023-01-08T02:29:25.439Z,5.80
2023-01-08T02:31:52.629Z,5.03
2023-01-08T02:34:19.420Z,5.20
2023-01-08T02:36:52.771Z,5.88
2023-01-08T02:39:44.492Z,5.43
2023-01-08T02:42:20.136Z,5.20
2023-01-08T02:44:49.875Z,5.10
2023-01-08T02:47:45.535Z,5.45
2023-01-08T02:50:33.720Z,5.47
2023-01-08T02:53:23.353Z,5.40
2023-01-08T02:58:23.318Z,6.10
2023-01-08T03:00:51.327Z,5.57
2023-01-08T03:06:17.848Z,5.20
2023-01-08T03:08:47.788Z,4.80
2023-01-08T03:11:18.227Z,6.30
2023-01-08T03:14:06.868Z,4.72
2023-01-08T03:16:37.748Z,5.15
2023-01-08T03:19:23.872Z,5.70
2023-01-08T03:21:52.133Z,5.53
2023-01-08T03:24:23.130Z,7.90
2023-01-08T03:26:52.137Z,4.75
2023-01-08T03:29:21.697Z,5.15
2023-01-08T03:34:19.110Z,4.85
2023-01-08T03:36:50.474Z,6.17
2023-01-08T03:39:22.580Z,5.22
2023-01-08T03:41:49.995Z,4.78
2023-01-08T03:44:16.839Z,5.15
2023-01-08T03:46:50.254Z,7.07
2023-01-08T03:49:17.886Z,6.00
2023-01-08T03:51:47.101Z,4.90
2023-01-08T03:54:24.694Z,5.10
2023-01-08T03:56:51.557Z,4.57
2023-01-08T03:59:18.345Z,4.30
2023-01-08T04:01:45.213Z,6.07
2023-01-08T04:04:12.581Z,5.43
2023-01-08T04:09:26.550Z,5.07
2023-01-08T04:14:40.058Z,4.80
2023-01-08T04:17:06.925Z,5.25
2023-01-08T04:19:33.710Z,4.57
2023-01-08T04:22:00.514Z,6.00
2023-01-08T04:24:27.339Z,4.93
2023-01-08T04:26:54.164Z,5.05
2023-01-08T04:29:21.006Z,4.80
2023-01-08T04:31:47.761Z,5.18
2023-01-08T04:34:14.583Z,5.95
2023-01-08T04:36:41.355Z,4.43
2023-01-08T04:39:08.153Z,4.20
2023-01-08T04:41:34.945Z,4.80
2023-01-08T04:44:01.766Z,4.57
2023-01-08T04:46:28.863Z,5.10
2023-01-08T04:48:55.692Z,6.97
2023-01-08T04:51:22.546Z,4.20
2023-01-08T04:53:49.364Z,5.50
2023-01-08T04:58:42.879Z,5.20
2023-01-08T05:04:15.476Z,8.20
2023-01-08T05:06:42.252Z,5.45
2023-01-08T05:09:09.097Z,4.55
2023-01-08T05:11:35.835Z,4.97
2023-01-08T05:14:02.587Z,6.30
2023-01-08T05:16:29.467Z,5.85
2023-01-08T05:18:56.291Z,4.80
2023-01-08T05:21:23.062Z,5.90
2023-01-08T05:23:49.880Z,4.68
2023-01-08T05:26:17.264Z,4.90
2023-01-08T05:28:44.298Z,4.85
2023-01-08T05:31:11.443Z,5.60
2023-01-08T05:33:39.048Z,5.07
2023-01-08T05:36:10.734Z,5.20
2023-01-08T05:38:37.943Z,4.68
2023-01-08T05:41:05.193Z,5.10
2023-01-08T05:43:32.091Z,5.10
2023-01-08T05:46:00.031Z,6.00
2023-01-08T05:48:31.988Z,6.80
2023-01-08T05:50:58.709Z,5.10
2023-01-08T05:53:25.604Z,4.40
2023-01-08T05:55:52.439Z,4.70
2023-01-08T05:58:19.318Z,4.68
2023-01-08T06:00:46.871Z,5.03
2023-01-08T06:03:13.762Z,4.47
2023-01-08T06:05:40.580Z,5.03
2023-01-08T06:08:08.724Z,5.60
2023-01-08T06:10:37.449Z,5.80
2023-01-08T06:15:59.332Z,5.50
2023-01-08T06:21:13.757Z,6.13
2023-01-08T06:26:27.514Z,6.50
2023-01-08T06:28:54.291Z,6.50
2023-01-08T06:31:21.113Z,5.82
2023-01-08T06:33:47.896Z,7.25
2023-01-08T06:36:14.668Z,7.45
2023-01-08T06:38:41.396Z,8.07
2023-01-08T06:41:09.996Z,7.00
2023-01-08T06:43:37.880Z,7.40
2023-01-08T06:46:08.118Z,8.57
2023-01-08T06:48:35.320Z,7.95
2023-01-08T06:53:50.013Z,11.38
2023-01-08T06:56:16.749Z,7.00
2023-01-08T06:58:43.516Z,6.63
2023-01-08T07:01:15.176Z,8.55
2023-01-08T07:03:42.716Z,9.40
2023-01-08T07:06:19.304Z,8.10
2023-01-08T07:08:46.447Z,7.30
2023-01-08T07:14:00.368Z,7.50
2023-01-08T07:19:13.864Z,7.32
2023-01-08T07:21:40.628Z,7.68
2023-01-08T07:24:07.730Z,9.05
2023-01-08T07:26:34.851Z,7.82
2023-01-08T07:29:01.666Z,10.05
2023-01-08T07:30:32.604Z,0
2023-01-08T07:31:28.625Z,8.10
2023-01-08T07:33:55.439Z,8.15
2023-01-08T07:36:22.781Z,9.10
2023-01-08T07:38:50.024Z,9.20
2023-01-08T07:41:18.499Z,10.70
2023-01-08T07:43:48.201Z,10.90
2023-01-08T07:46:15.549Z,11.80
2023-01-08T07:48:42.463Z,9.03
2023-01-08T07:51:09.790Z,10.23
2023-01-08T07:53:37.593Z,8.20
2023-01-08T07:56:07.428Z,10.10
2023-01-08T07:58:34.444Z,10.70
2023-01-08T08:01:01.855Z,8.68
2023-01-08T08:03:28.690Z,9.10
2023-01-08T08:05:55.510Z,9.73
2023-01-08T08:08:22.291Z,10.15
2023-01-08T08:10:49.061Z,8.15
2023-01-08T08:13:15.839Z,9.20
2023-01-08T08:15:42.714Z,10.60
2023-01-08T08:18:09.686Z,10.60
2023-01-08T08:20:37.068Z,12.57
2023-01-08T08:23:06.863Z,11.90
2023-01-08T08:25:34.475Z,10.50
2023-01-08T08:28:02.401Z,9.43
2023-01-08T08:30:30.860Z,10.00
2023-01-08T08:33:02.780Z,9.68
2023-01-08T08:35:30.609Z,10.40
2023-01-08T08:37:57.894Z,11.32
2023-01-08T08:40:25.809Z,16.95
2023-01-08T08:43:00.355Z,13.38
2023-01-08T08:47:54.146Z,12.98
2023-01-08T08:50:21.778Z,14.10
2023-01-08T08:55:35.594Z,10.55
2023-01-08T08:58:13.542Z,11.50
2023-01-08T09:00:41.846Z,14.83
2023-01-08T09:03:13.813Z,11.20
2023-01-08T09:05:40.955Z,11.70
2023-01-08T09:08:07.747Z,12.38
2023-01-08T09:10:36.276Z,13.25
2023-01-08T09:13:03.052Z,10.82
2023-01-08T09:15:29.838Z,10.68
2023-01-08T09:20:44.599Z,12.05
2023-01-08T09:23:11.510Z,12.40
2023-01-08T09:25:38.316Z,12.75
2023-01-08T09:28:07.823Z,12.77
2023-01-08T09:30:35.461Z,11.00
2023-01-08T09:33:03.510Z,11.85
2023-01-08T09:35:31.493Z,11.68
2023-01-08T09:37:58.315Z,10.82
2023-01-08T09:40:34.027Z,10.70
2023-01-08T09:43:03.353Z,11.73
2023-01-08T09:45:37.433Z,11.38
2023-01-08T09:48:11.201Z,11.00
2023-01-08T09:53:25.827Z,12.27
2023-01-08T09:56:10.282Z,12.10
2023-01-08T09:58:47.999Z,11.23
2023-01-08T10:01:16.885Z,13.00
2023-01-08T10:03:50.710Z,13.20
2023-01-08T10:06:17.916Z,12.55
2023-01-08T10:11:14.430Z,11.90
2023-01-08T10:13:46.790Z,11.52
2023-01-08T10:16:33.437Z,11.17
2023-01-08T10:19:03.057Z,20.73
2023-01-08T10:24:37.691Z,13.15
2023-01-08T10:27:12.345Z,12.53
2023-01-08T10:29:39.141Z,11.55
2023-01-08T10:32:15.844Z,12.63
2023-01-08T10:34:52.802Z,13.15
2023-01-08T10:37:43.029Z,11.38
2023-01-08T10:40:39.761Z,13.80
2023-01-08T10:43:14.891Z,10.77
2023-01-08T10:51:50.118Z,10.20
2023-01-08T10:54:40.892Z,9.68
2023-01-08T11:00:25.017Z,10.83
2023-01-08T11:02:52.632Z,10.57
2023-01-08T11:05:19.567Z,9.90
2023-01-08T11:07:56.354Z,8.88
2023-01-08T11:10:25.255Z,10.23
2023-01-08T11:13:01.250Z,12.50
2023-01-08T11:15:32.574Z,13.25
2023-01-08T11:18:25.340Z,12.40
2023-01-08T11:20:54.024Z,11.57
2023-01-08T11:23:23.095Z,13.43
2023-01-08T11:26:06.300Z,14.13
2023-01-08T11:32:05.128Z,10.20
2023-01-08T11:34:51.325Z,9.63
2023-01-08T11:40:31.162Z,9.38
2023-01-08T11:43:13.130Z,10.90
2023-01-08T11:46:04.211Z,9.07
2023-01-08T11:48:35.011Z,9.30
2023-01-08T11:51:23.131Z,8.68
2023-01-08T11:54:20.548Z,10.32
2023-01-08T11:57:08.868Z,9.03
2023-01-08T11:59:51.406Z,12.23
2023-01-08T12:05:44.809Z,8.20
2023-01-08T12:08:50.656Z,8.80
2023-01-08T12:11:28.624Z,8.73
2023-01-08T12:14:17.171Z,9.98
2023-01-08T12:16:59.452Z,9.63
2023-01-08T12:19:29.042Z,11.00
2023-01-08T12:22:13.700Z,10.48
2023-01-08T12:24:43.295Z,10.87
2023-01-08T12:27:29.822Z,14.70
2023-01-08T12:30:09.379Z,8.90
2023-01-08T12:32:51.050Z,8.90
2023-01-08T12:35:25.115Z,8.90
2023-01-08T12:38:18.765Z,9.40
2023-01-08T12:40:57.995Z,9.77
2023-01-08T12:43:07.013Z,0
2023-01-08T12:43:32.742Z,8.88
2023-01-08T12:46:02.443Z,8.80
2023-01-08T12:48:33.086Z,8.68
2023-01-08T12:51:18.755Z,10.00
2023-01-08T12:54:06.421Z,9.18
2023-01-08T12:56:47.162Z,8.85
2023-01-08T12:59:51.806Z,7.80
2023-01-08T13:02:44.361Z,8.50
2023-01-08T13:05:31.083Z,8.10
2023-01-08T13:08:01.837Z,8.20
2023-01-08T13:10:31.683Z,7.93
2023-01-08T13:12:59.628Z,7.82
2023-01-08T13:15:29.153Z,8.03
2023-01-08T13:18:07.131Z,7.80
2023-01-08T13:20:34.280Z,9.50
2023-01-08T13:23:04.172Z,11.17
2023-01-08T13:25:36.804Z,7.60
2023-01-08T13:28:25.477Z,7.75
2023-01-08T13:30:52.557Z,7.45
2023-01-08T13:33:36.768Z,7.20
2023-01-08T13:36:20.872Z,7.10
2023-01-08T13:39:11.070Z,6.85
2023-01-08T13:41:42.440Z,7.30
2023-01-08T13:44:35.668Z,7.07
2023-01-08T13:47:06.491Z,7.32
2023-01-08T13:49:53.942Z,7.40
2023-01-08T13:52:40.222Z,7.18
2023-01-08T13:55:18.693Z,7.20
2023-01-08T13:57:53.650Z,8.85
2023-01-08T14:00:30.816Z,6.35
2023-01-08T14:02:57.662Z,8.23
2023-01-08T14:08:27.018Z,8.68
2023-01-08T14:10:54.242Z,7.88
2023-01-08T14:13:27.400Z,7.05
2023-01-08T14:15:58.051Z,8.00
2023-01-08T14:18:24.910Z,10.68
2023-01-08T14:20:51.854Z,8.82
2023-01-08T14:23:24.998Z,6.47
2023-01-08T14:25:52.219Z,7.45
2023-01-08T14:28:21.717Z,7.10
2023-01-08T14:33:42.426Z,8.40
2023-01-08T14:38:56.224Z,7.97
2023-01-08T14:41:42.337Z,8.85
2023-01-08T14:44:13.575Z,8.70
2023-01-08T14:44:44.380Z,0
2023-01-08T14:46:40.477Z,8.73
2023-01-08T14:49:14.221Z,11.40
2023-01-08T14:51:41.342Z,12.10
2023-01-08T14:54:08.296Z,9.07
2023-01-08T14:56:36.569Z,9.10
2023-01-08T14:59:12.614Z,9.85
2023-01-08T15:01:39.722Z,10.20
2023-01-08T15:04:06.756Z,8.25
2023-01-08T15:06:34.869Z,10.20
2023-01-08T15:09:01.872Z,9.88
2023-01-08T15:11:31.497Z,9.75
2023-01-08T15:13:58.910Z,10.90
2023-01-08T15:16:41.038Z,11.20
2023-01-08T15:19:11.239Z,10.93
2023-01-08T15:21:38.514Z,11.95
2023-01-08T15:24:07.131Z,10.85
2023-01-08T15:26:34.277Z,11.25
2023-01-08T15:31:53.313Z,10.48
2023-01-08T15:34:21.208Z,9.88
2023-01-08T15:36:48.426Z,10.25
2023-01-08T15:39:15.270Z,11.83
2023-01-08T15:41:42.053Z,10.93
2023-01-08T15:44:10.890Z,10.20
2023-01-08T15:46:37.828Z,9.50
2023-01-08T15:49:04.594Z,10.60
2023-01-08T15:51:34.232Z,11.40
2023-01-08T15:54:02.003Z,10.30
2023-01-08T15:56:28.834Z,12.65
2023-01-08T15:58:55.621Z,11.80
2023-01-08T16:01:22.581Z,11.32
2023-01-08T16:03:49.464Z,12.80
2023-01-08T16:06:16.293Z,13.73
2023-01-08T16:08:43.109Z,12.80
2023-01-08T16:11:09.946Z,13.70
2023-01-08T16:13:36.682Z,12.23
2023-01-08T16:16:11.340Z,13.00
2023-01-08T16:18:38.403Z,13.05
2023-01-08T16:21:06.794Z,14.77
2023-01-08T16:23:35.205Z,12.67
2023-01-08T16:26:15.116Z,16.95
2023-01-08T16:28:42.177Z,16.27
2023-01-08T16:31:09.964Z,14.63
2023-01-08T16:33:37.019Z,14.32
2023-01-08T16:36:11.152Z,13.05
2023-01-08T16:38:38.501Z,13.40
2023-01-08T16:41:05.820Z,15.43
2023-01-08T16:43:39.913Z,12.32
2023-01-08T16:46:12.815Z,12.15
2023-01-08T16:48:40.779Z,11.20
2023-01-08T16:51:07.711Z,12.25
2023-01-08T16:56:01.926Z,10.30
2023-01-08T16:58:28.785Z,10.10
2023-01-08T17:03:43.277Z,9.75
2023-01-08T17:09:02.083Z,10.88
2023-01-08T17:14:15.603Z,10.90
2023-01-08T17:16:42.612Z,9.77
2023-01-08T17:19:09.407Z,9.15
2023-01-08T17:21:36.168Z,11.43
2023-01-08T17:24:03.148Z,10.97
2023-01-08T17:26:30.137Z,10.18
2023-01-08T17:28:56.973Z,10.80
2023-01-08T17:31:23.833Z,10.93
2023-01-08T17:33:51.203Z,10.82
2023-01-08T17:36:21.628Z,10.90
2023-01-08T17:41:36.135Z,13.05
2023-01-08T17:46:31.038Z,12.50
2023-01-08T17:48:57.791Z,11.90
2023-01-08T17:51:24.576Z,12.63
2023-01-08T17:53:51.369Z,13.90
2023-01-08T17:56:18.181Z,18.40
2023-01-08T17:58:44.979Z,13.45
2023-01-08T18:01:12.062Z,12.90
2023-01-08T18:03:38.888Z,12.90
2023-01-08T18:06:10.429Z,18.70
2023-01-08T18:08:38.170Z,18.80
2023-01-08T18:11:06.413Z,16.75
2023-01-08T18:13:33.618Z,16.75
2023-01-08T18:16:09.481Z,18.15
2023-01-08T18:18:37.071Z,17.70
2023-01-08T18:23:51.043Z,19.50
2023-01-08T18:29:06.769Z,18.63
2023-01-08T18:34:20.320Z,19.43
2023-01-08T18:36:47.079Z,21.08
2023-01-08T18:39:14.261Z,23.13
2023-01-08T18:41:41.051Z,23.27
2023-01-08T18:44:08.790Z,17.65
2023-01-08T18:46:36.681Z,17.45
2023-01-08T18:49:04.407Z,15.45
2023-01-08T18:51:31.182Z,16.05
2023-01-08T18:53:58.144Z,14.18
2023-01-08T18:56:30.351Z,12.77
2023-01-08T19:01:44.196Z,13.20
2023-01-08T19:07:02.314Z,12.88
2023-01-08T19:12:15.748Z,9.88
2023-01-08T19:14:42.684Z,9.07
2023-01-08T19:17:09.482Z,9.00
2023-01-08T19:19:36.501Z,9.50
2023-01-08T19:22:03.281Z,10.80
2023-01-08T19:24:30.024Z,11.55
2023-01-08T19:26:56.807Z,12.63
2023-01-08T19:29:23.616Z,12.02
2023-01-08T19:31:50.470Z,10.02
2023-01-08T19:34:17.272Z,11.07
2023-01-08T19:36:44.001Z,11.10
2023-01-08T19:39:10.929Z,9.77
2023-01-08T19:41:39.067Z,9.60
2023-01-08T19:44:06.969Z,12.95
2023-01-08T19:46:34.151Z,9.00
2023-01-08T19:49:02.228Z,6.90
2023-01-08T19:51:30.976Z,8.20
2023-01-08T19:53:58.233Z,7.82
2023-01-08T19:56:25.593Z,7.00
2023-01-08T19:58:52.386Z,8.38
2023-01-08T20:01:24.354Z,7.05
2023-01-08T20:03:52.020Z,6.40
2023-01-08T20:09:12.315Z,7.28
2023-01-08T20:14:29.211Z,6.10
2023-01-08T20:19:42.691Z,6.22
2023-01-08T20:22:09.489Z,5.38
2023-01-08T20:24:38.376Z,5.95
2023-01-08T20:27:05.160Z,9.30
2023-01-08T20:29:31.990Z,7.15
2023-01-08T20:32:00.222Z,5.43
2023-01-08T20:34:27.337Z,5.68
2023-01-08T20:36:54.126Z,7.05
2023-01-08T20:39:22.111Z,5.60
2023-01-08T20:41:55.465Z,6.15
2023-01-08T20:42:36.119Z,0
2023-01-08T20:44:30.836Z,6.10
2023-01-08T20:49:44.451Z,5.30
2023-01-08T20:54:57.850Z,6.13
2023-01-08T21:00:11.911Z,4.90
2023-01-08T21:02:38.696Z,4.80
2023-01-08T21:05:05.847Z,5.75
2023-01-08T21:07:32.686Z,5.60
2023-01-08T21:09:59.436Z,7.90
2023-01-08T21:12:26.242Z,6.95
2023-01-08T21:14:53.010Z,6.70
2023-01-08T21:17:19.797Z,6.28
2023-01-08T21:19:46.564Z,6.10
2023-01-08T21:22:13.303Z,6.00
2023-01-08T21:24:40.132Z,5.10
2023-01-08T21:27:06.988Z,4.60
2023-01-08T21:29:33.725Z,4.68
2023-01-08T21:32:00.585Z,4.50
2023-01-08T21:37:14.090Z,4.80
2023-01-08T21:42:28.280Z,5.85
2023-01-08T21:47:42.139Z,4.80
2023-01-08T21:50:11.198Z,6.00
2023-01-08T21:52:37.958Z,6.30
2023-01-08T21:55:05.017Z,5.90
2023-01-08T22:00:25.542Z,5.57
2023-01-08T22:05:39.024Z,6.38
2023-01-08T22:08:05.769Z,6.45
2023-01-08T22:10:32.582Z,6.63
2023-01-08T22:12:59.340Z,7.45
2023-01-08T22:15:26.115Z,6.80
2023-01-08T22:17:52.932Z,7.93
2023-01-08T22:20:19.803Z,5.80
2023-01-08T22:22:49.392Z,6.55
2023-01-08T22:25:16.217Z,5.55
2023-01-08T22:27:42.969Z,6.55
2023-01-08T22:30:10.398Z,5.27
2023-01-08T22:32:37.142Z,7.28
2023-01-08T22:35:04.158Z,5.22
2023-01-08T22:37:30.899Z,5.45
2023-01-08T22:39:57.653Z,5.07
2023-01-08T22:42:24.553Z,4.80
2023-01-08T22:44:51.281Z,5.15
2023-01-08T22:47:18.062Z,4.50
2023-01-08T22:49:44.868Z,5.07
2023-01-08T22:52:11.629Z,7.20
2023-01-08T22:54:38.474Z,6.10
2023-01-08T22:57:05.491Z,7.03
2023-01-08T22:59:32.234Z,5.78
2023-01-08T23:01:59.116Z,5.53
2023-01-08T23:04:26.113Z,5.50
2023-01-08T23:06:52.867Z,6.63
2023-01-08T23:12:06.652Z,9.27
2023-01-08T23:17:20.144Z,5.75
2023-01-08T23:19:47.003Z,6.37
2023-01-08T23:25:00.517Z,6.43
2023-01-08T23:30:17.012Z,8.40
2023-01-08T23:35:30.432Z,6.68
2023-01-08T23:37:57.225Z,6.97
2023-01-08T23:40:23.980Z,7.75
2023-01-08T23:42:50.778Z,7.35
2023-01-08T23:45:17.606Z,9.40
2023-01-08T23:47:44.603Z,7.10
2023-01-08T23:50:11.873Z,7.85
2023-01-08T23:52:38.657Z,7.45
2023-01-08T23:55:05.689Z,7.70
2023-01-08T23:57:32.427Z,8.63
2023-01-08T23:59:59.243Z,7.72
